Time;durP1;ratioP1;P1;durP2;ratioP2;P2;SDS_P1;SDS_P2;PMS_P1;PMS_P2;Temp;Humidity;BMP_temperature;BMP_pressure;BME280_temperature;BME280_humidity;BME280_pressure;Samples;Min_cycle;Max_cycle;Signal;HPM_P1;HPM_P2
2021/05/18 00:01:36;;;;;;;10.77;1.88;;;10.80;99.90;;;;;;4955901;29;20039;-77
2021/05/18 00:04:02;;;;;;;9.85;1.63;;;10.90;99.90;;;;;;4957227;29;20062;-77
2021/05/18 00:06:28;;;;;;;10.82;2.47;;;10.80;99.90;;;;;;4956602;28;20458;-77
2021/05/18 00:11:46;;;;;;;9.20;1.40;;;10.90;99.90;;;;;;4956598;29;20572;-78
2021/05/18 00:14:18;;;;;;;9.68;2.03;;;10.90;99.90;;;;;;4957071;29;20039;-78
2021/05/18 00:16:45;;;;;;;7.53;1.33;;;10.80;99.90;;;;;;4956807;29;20126;-78
2021/05/18 00:19:12;;;;;;;9.68;1.38;;;10.50;99.90;;;;;;4955584;28;20043;-78
2021/05/18 00:21:39;;;;;;;13.23;1.77;;;10.40;99.90;;;;;;4955010;28;20081;-78
2021/05/18 00:24:05;;;;;;;8.88;1.73;;;10.20;99.90;;;;;;4952393;29;20607;-78
2021/05/18 00:26:31;;;;;;;10.45;2.33;;;10.20;99.90;;;;;;4952361;29;20050;-78
2021/05/18 00:28:57;;;;;;;8.85;1.77;;;10.10;99.90;;;;;;4955414;28;20036;-79
2021/05/18 00:31:23;;;;;;;9.18;1.48;;;10.00;99.90;;;;;;4956637;29;20046;-78
2021/05/18 00:33:49;;;;;;;13.27;1.80;;;10.00;99.90;;;;;;4955570;29;20039;-78
2021/05/18 00:36:15;;;;;;;10.88;1.75;;;9.90;99.90;;;;;;4956636;29;20039;-78
2021/05/18 00:38:42;;;;;;;12.45;1.90;;;9.90;99.90;;;;;;4955057;29;20515;-78
2021/05/18 00:41:11;;;;;;;12.73;1.95;;;9.80;99.90;;;;;;4956323;29;20137;-78
2021/05/18 00:43:38;;;;;;;8.02;1.63;;;9.70;99.90;;;;;;4955042;28;20117;-78
2021/05/18 00:46:05;;;;;;;8.48;1.80;;;9.60;99.90;;;;;;4955227;29;20035;-78
2021/05/18 00:48:34;;;;;;;15.85;2.20;;;9.50;99.90;;;;;;4956768;29;20039;-78
2021/05/18 00:51:06;;;;;;;12.65;1.60;;;9.60;99.90;;;;;;4950619;28;20067;-77
2021/05/18 00:53:32;;;;;;;6.55;1.45;;;9.50;99.90;;;;;;4935804;29;20035;-78
2021/05/18 00:56:08;;;;;;;9.63;1.92;;;9.60;99.90;;;;;;4936931;29;20050;-78
2021/05/18 00:58:40;;;;;;;9.93;2.00;;;9.70;99.90;;;;;;4935351;29;20039;-78
2021/05/18 01:01:16;;;;;;;9.90;1.60;;;9.70;99.90;;;;;;4937156;29;20127;-77
2021/05/18 01:03:43;;;;;;;11.32;1.67;;;9.70;99.90;;;;;;4937373;29;20131;-78
2021/05/18 01:06:19;;;;;;;10.20;1.80;;;9.60;99.90;;;;;;4935723;29;20573;-78
2021/05/18 01:08:47;;;;;;;11.23;1.73;;;9.60;99.90;;;;;;4935836;29;20044;-77
2021/05/18 01:11:15;;;;;;;11.50;1.88;;;9.60;99.90;;;;;;4937065;29;20044;-77
2021/05/18 01:13:41;;;;;;;14.20;1.65;;;9.50;99.90;;;;;;4937033;29;20644;-78
2021/05/18 01:16:09;;;;;;;7.18;1.60;;;9.60;99.90;;;;;;4935853;29;20400;-78
2021/05/18 01:18:45;;;;;;;8.70;1.70;;;9.50;99.90;;;;;;4935717;29;20079;-78
2021/05/18 01:21:12;;;;;;;9.40;1.67;;;9.30;99.90;;;;;;4937606;29;20059;-78
2021/05/18 01:23:40;;;;;;;10.32;1.85;;;9.40;99.90;;;;;;4937141;29;20511;-78
2021/05/18 01:26:06;;;;;;;6.80;1.33;;;9.30;99.90;;;;;;4937015;29;20040;-78
2021/05/18 01:28:32;;;;;;;13.57;2.17;;;9.20;99.90;;;;;;4936663;29;20399;-78
2021/05/18 01:31:00;;;;;;;12.02;1.95;;;9.20;99.90;;;;;;4935684;29;20036;-78
2021/05/18 01:33:26;;;;;;;9.88;1.92;;;9.10;99.90;;;;;;4939726;29;20581;-78
2021/05/18 01:35:54;;;;;;;8.60;2.08;;;9.20;99.90;;;;;;4940375;29;20076;-78
2021/05/18 01:38:24;;;;;;;15.27;2.53;;;9.10;99.90;;;;;;4939145;29;20134;-77
2021/05/18 01:43:35;;;;;;;12.85;2.20;;;9.00;99.90;;;;;;4940195;29;20112;-77
2021/05/18 01:46:00;;;;;;;8.55;1.85;;;9.10;99.90;;;;;;4940517;29;20086;-77
2021/05/18 01:48:26;;;;;;;5.47;1.27;;;9.10;99.90;;;;;;4939118;29;20517;-77
2021/05/18 01:50:53;;;;;;;6.40;1.75;;;9.00;99.90;;;;;;4942127;29;20059;-77
2021/05/18 01:53:20;;;;;;;11.40;1.70;;;9.00;99.90;;;;;;4959764;29;20035;-77
2021/05/18 01:56:17;;;;;;;7.93;1.73;;;9.00;99.90;;;;;;4958128;29;20035;-77
2021/05/18 01:58:44;;;;;;;10.13;1.60;;;8.80;99.90;;;;;;4959504;29;20050;-77
2021/05/18 02:01:10;;;;;;;8.90;1.23;;;8.80;99.90;;;;;;4959604;29;20047;-77
2021/05/18 02:03:35;;;;;;;10.48;1.80;;;8.80;99.90;;;;;;4959648;29;20044;-77
2021/05/18 02:06:02;;;;;;;6.05;1.45;;;8.70;99.90;;;;;;4957970;29;20050;-77
2021/05/18 02:08:27;;;;;;;13.38;2.42;;;8.70;99.90;;;;;;4959097;29;20050;-77
2021/05/18 02:10:53;;;;;;;5.05;1.65;;;8.60;99.90;;;;;;4958749;29;20525;-77
2021/05/18 02:13:19;;;;;;;7.10;1.55;;;8.60;99.90;;;;;;4959144;29;20490;-77
2021/05/18 02:15:55;;;;;;;10.43;2.05;;;8.50;99.90;;;;;;4959597;29;20383;-77
2021/05/18 02:26:27;;;;;;;10.40;1.85;;;8.50;99.90;;;;;;4958562;29;20038;-78
2021/05/18 02:28:53;;;;;;;9.57;1.70;;;8.50;99.90;;;;;;4957561;28;20039;-78
2021/05/18 02:31:21;;;;;;;8.05;1.70;;;8.50;99.90;;;;;;4957576;29;20073;-77
2021/05/18 02:33:49;;;;;;;12.23;2.08;;;8.50;99.90;;;;;;4958911;29;20027;-77
2021/05/18 02:36:22;;;;;;;10.10;1.60;;;8.50;99.90;;;;;;4958793;29;20038;-77
2021/05/18 02:38:48;;;;;;;10.55;1.75;;;8.60;99.90;;;;;;4957322;29;20094;-78
2021/05/18 02:41:14;;;;;;;13.68;2.05;;;8.60;99.90;;;;;;4957409;29;20490;-77
2021/05/18 02:43:48;;;;;;;9.45;1.50;;;8.60;99.90;;;;;;4957966;28;20486;-78
2021/05/18 02:51:24;;;;;;;7.70;1.80;;;8.50;99.90;;;;;;4957853;28;20054;-78
2021/05/18 02:53:50;;;;;;;10.80;1.70;;;8.50;99.90;;;;;;4956686;29;20043;-77
2021/05/18 02:56:32;;;;;;;10.02;2.00;;;8.50;99.90;;;;;;4956751;29;20035;-77
2021/05/18 02:59:17;;;;;;;11.25;1.90;;;8.40;99.90;;;;;;4958491;29;20050;-77
2021/05/18 03:01:57;;;;;;;8.77;1.67;;;8.40;99.90;;;;;;4958896;29;20043;-77
2021/05/18 03:04:23;;;;;;;9.70;1.70;;;8.30;99.90;;;;;;4958451;29;20035;-78
2021/05/18 03:06:50;;;;;;;11.05;1.67;;;8.20;99.90;;;;;;4958463;29;20832;-78
2021/05/18 03:09:17;;;;;;;8.10;2.17;;;8.20;99.90;;;;;;4956676;29;20093;-78
2021/05/18 03:11:45;;;;;;;12.25;1.90;;;8.20;99.90;;;;;;4956792;29;20043;-78
2021/05/18 03:14:12;;;;;;;13.95;2.30;;;8.10;99.90;;;;;;4957753;29;20102;-78
2021/05/18 03:16:39;;;;;;;8.75;1.77;;;8.00;99.90;;;;;;4956677;29;20038;-78
2021/05/18 03:19:06;;;;;;;12.05;2.17;;;7.90;99.90;;;;;;4956713;28;20494;-78
2021/05/18 03:21:33;;;;;;;9.52;2.10;;;7.90;99.90;;;;;;4956556;29;20046;-78
2021/05/18 03:23:59;;;;;;;10.48;2.08;;;7.80;99.90;;;;;;4956360;29;20046;-78
2021/05/18 03:26:27;;;;;;;10.93;2.17;;;7.80;99.90;;;;;;4956593;29;20038;-78
2021/05/18 03:29:00;;;;;;;12.60;2.33;;;7.70;99.90;;;;;;4956448;29;20039;-78
2021/05/18 03:36:57;;;;;;;10.68;1.95;;;7.70;99.90;;;;;;4957023;29;20027;-78
2021/05/18 03:39:24;;;;;;;8.05;1.90;;;7.60;99.90;;;;;;4956003;29;20067;-78
2021/05/18 03:42:06;;;;;;;10.85;1.83;;;7.60;99.90;;;;;;4956303;29;20031;-78
2021/05/18 03:52:34;;;;;;;11.55;1.92;;;7.50;99.90;;;;;;4957454;29;20134;-78
2021/05/18 04:03:17;;;;;;;12.07;2.45;;;7.40;99.90;;;;;;4957820;29;20519;-77
2021/05/18 04:21:42;;;;;;;11.32;1.83;;;7.20;99.90;;;;;;4957241;29;20071;-77
2021/05/18 04:52:24;;;;;;;10.98;2.00;;;7.60;99.90;;;;;;4955158;28;20062;-79
2021/05/18 05:19:03;;;;;;;10.68;2.33;;;8.20;99.90;;;;;;4958175;29;20770;-79
2021/05/18 05:35:08;;;;;;;10.02;2.17;;;13.30;95.10;;;;;;4956064;29;20030;-79
2021/05/18 06:02:51;;;;;;;8.77;1.60;;;11.20;99.90;;;;;;4806455;29;20143;-79
2021/05/18 06:05:19;;;;;;;7.53;1.70;;;10.90;99.90;;;;;;4823879;29;20069;-81
2021/05/18 06:07:48;;;;;;;5.63;1.60;;;11.30;99.90;;;;;;4823887;29;20052;-81
2021/05/18 06:10:57;;;;;;;6.75;1.77;;;10.90;99.90;;;;;;4808336;29;20102;-79
2021/05/18 06:42:47;;;;;;;8.00;2.17;;;12.50;99.90;;;;;;4937568;29;20050;-81
2021/05/18 06:52:01;;;;;;;8.23;2.30;;;12.30;99.90;;;;;;4936028;29;20035;-80
2021/05/18 06:55:09;;;;;;;47.05;31.75;;;12.30;99.90;;;;;;4937386;29;20035;-86
2021/05/18 07:01:47;;;;;;;9.40;2.30;;;12.90;99.90;;;;;;4947652;28;20054;-76
2021/05/18 07:04:23;;;;;;;;;;;;;;;;;;;;;
2021/05/18 07:07:10;;;;;;;9.52;1.70;;;13.90;97.50;;;;;;4954173;29;20050;-79
2021/05/18 07:09:45;;;;;;;12.98;2.88;;;14.40;97.60;;;;;;4953344;29;20043;-79
2021/05/18 07:12:15;;;;;;;7.57;2.33;;;14.00;98.00;;;;;;4954212;29;20039;-79
2021/05/18 07:14:53;;;;;;;9.70;2.08;;;13.90;97.30;;;;;;4953926;29;20563;-79
2021/05/18 07:17:18;;;;;;;17.73;10.63;;;13.50;97.40;;;;;;4954195;29;20051;-79
2021/05/18 07:19:53;;;;;;;10.57;4.30;;;13.70;98.40;;;;;;4954277;29;20371;-77
2021/05/18 07:22:19;;;;;;;10.35;1.88;;;14.20;97.80;;;;;;4953457;29;20039;-80
2021/05/18 07:24:45;;;;;;;6.32;1.60;;;14.30;95.40;;;;;;4953756;29;20039;-79
2021/05/18 07:27:10;;;;;;;10.07;2.10;;;13.90;96.70;;;;;;4953808;29;20049;-80
2021/05/18 07:29:51;;;;;;;8.98;2.00;;;14.40;97.00;;;;;;4953148;28;20035;-80
2021/05/18 07:32:17;;;;;;;7.95;1.88;;;15.10;94.00;;;;;;4937535;29;20045;-84
2021/05/18 07:34:50;;;;;;;9.98;1.85;;;15.00;91.30;;;;;;4943732;29;20043;-83
2021/05/18 07:37:18;;;;;;;7.45;1.88;;;15.30;90.60;;;;;;4954973;29;20117;-85
2021/05/18 07:39:56;;;;;;;6.72;1.65;;;15.20;90.70;;;;;;4955331;29;20094;-82
2021/05/18 07:42:29;;;;;;;10.25;2.25;;;15.80;83.70;;;;;;4938827;29;20139;-89
2021/05/18 07:44:59;;;;;;;838.35;352.70;;;16.00;84.70;;;;;;4938625;29;20035;-83
2021/05/18 07:47:33;;;;;;;40.90;29.67;;;15.80;85.60;;;;;;4953917;29;20050;-81
2021/05/18 07:50:06;;;;;;;17.45;10.23;;;15.50;84.70;;;;;;4955265;29;20049;-80
2021/05/18 08:06:14;;;;;;;8.73;1.73;;;14.70;82.50;;;;;;4956947;29;20409;-80
2021/05/18 08:08:40;;;;;;;6.90;1.40;;;14.60;83.00;;;;;;4955667;29;20134;-80
2021/05/18 08:11:07;;;;;;;7.43;2.25;;;14.60;82.50;;;;;;4955497;29;20039;-80
2021/05/18 08:13:33;;;;;;;9.70;2.17;;;14.80;83.90;;;;;;4955528;28;20038;-80
2021/05/18 09:49:55;;;;;;;5.70;1.48;;;19.70;40.40;;;;;;4955901;29;20098;-79
2021/05/18 10:36:04;;;;;;;6.45;1.60;;;19.40;35.30;;;;;;4958519;29;20106;-79
2021/05/18 10:38:33;;;;;;;5.38;2.10;;;19.20;35.40;;;;;;4957416;29;20051;-80
2021/05/18 10:41:24;;;;;;;8.05;2.97;;;19.10;35.20;;;;;;4957484;29;20062;-79
2021/05/18 10:44:02;;;;;;;5.68;1.95;;;19.10;33.70;;;;;;4956805;29;20039;-81
2021/05/18 10:46:33;;;;;;;3.85;1.88;;;19.00;29.70;;;;;;4956880;29;20090;-79
2021/05/18 10:49:02;;;;;;;3.90;1.38;;;19.50;28.60;;;;;;4957239;29;20050;-79
2021/05/18 10:51:53;;;;;;;4.03;1.30;;;20.00;27.50;;;;;;4957592;29;20039;-79
2021/05/18 10:54:27;;;;;;;3.58;1.45;;;19.60;27.80;;;;;;4956687;29;20050;-80
2021/05/18 10:56:59;;;;;;;3.13;1.50;;;18.80;28.80;;;;;;4957746;29;20039;-78
2021/05/18 10:59:29;;;;;;;3.95;1.05;;;18.80;31.40;;;;;;4956818;29;20046;-78
2021/05/18 11:02:05;;;;;;;2.97;1.50;;;18.40;31.20;;;;;;4956529;28;20055;-74
2021/05/18 11:05:14;;;;;;;3.83;1.42;;;18.10;32.80;;;;;;4957498;28;20039;-75
2021/05/18 11:07:40;;;;;;;4.78;1.17;;;18.10;32.50;;;;;;4958020;29;20110;-74
2021/05/18 11:10:36;;;;;;;3.50;0.98;;;18.10;32.20;;;;;;4957896;29;20043;-76
2021/05/18 11:13:09;;;;;;;3.70;1.05;;;18.80;31.30;;;;;;4940636;29;20134;-76
2021/05/18 11:15:36;;;;;;;3.47;1.20;;;18.90;30.90;;;;;;4960578;29;20035;-76
2021/05/18 11:18:04;;;;;;;5.13;1.30;;;19.30;31.20;;;;;;4958462;29;20211;-76
2021/05/18 11:23:27;;;;;;;2.92;1.00;;;19.90;29.80;;;;;;4957916;29;20070;-77
2021/05/18 11:26:08;;;;;;;4.72;1.45;;;19.30;28.90;;;;;;4956121;29;20134;-74
2021/05/18 11:28:34;;;;;;;4.13;1.40;;;19.50;33.00;;;;;;4957484;29;20039;-74
2021/05/18 11:31:04;;;;;;;2.83;0.80;;;19.30;32.70;;;;;;4956244;29;20047;-75
2021/05/18 11:33:38;;;;;;;1.92;0.93;;;19.10;29.30;;;;;;4957428;29;20043;-75
2021/05/18 11:36:05;;;;;;;4.05;0.82;;;19.30;28.40;;;;;;4957500;29;20051;-74
2021/05/18 11:38:34;;;;;;;3.63;0.95;;;19.40;28.50;;;;;;4960851;29;20122;-74
2021/05/18 11:41:00;;;;;;;2.15;0.95;;;20.10;27.60;;;;;;4960561;29;20050;-74
2021/05/18 11:43:35;;;;;;;3.20;1.17;;;19.40;28.60;;;;;;4949763;29;20043;-74
2021/05/18 11:46:09;;;;;;;3.92;1.15;;;19.10;30.10;;;;;;4956488;29;20109;-74
2021/05/18 11:48:40;;;;;;;3.35;1.05;;;18.80;30.10;;;;;;4957331;29;20510;-72
2021/05/18 11:51:15;;;;;;;4.63;1.10;;;19.50;29.60;;;;;;4956207;29;20077;-71
2021/05/18 11:53:52;;;;;;;2.65;1.05;;;19.00;33.20;;;;;;4956257;29;20095;-72
2021/05/18 11:56:29;;;;;;;4.60;1.17;;;18.60;32.70;;;;;;4954372;29;20047;-72
2021/05/18 11:59:04;;;;;;;4.53;1.00;;;18.40;32.40;;;;;;4953904;29;20173;-72
2021/05/18 12:01:35;;;;;;;3.90;1.08;;;18.80;34.30;;;;;;4953800;29;20477;-72
2021/05/18 12:04:01;;;;;;;4.55;1.23;;;19.20;32.90;;;;;;4955997;29;20061;-72
2021/05/18 12:06:27;;;;;;;5.35;1.33;;;19.20;34.50;;;;;;4955929;29;20170;-72
2021/05/18 12:09:03;;;;;;;2.05;0.80;;;19.20;33.90;;;;;;4956639;29;20090;-71
2021/05/18 12:11:29;;;;;;;3.63;0.95;;;19.80;29.90;;;;;;4956102;29;20126;-73
2021/05/18 12:13:55;;;;;;;6.90;1.67;;;19.80;28.50;;;;;;4956514;29;20043;-72
2021/05/18 12:16:23;;;;;;;4.22;1.20;;;19.60;28.50;;;;;;4956774;28;20054;-72
2021/05/18 12:19:00;;;;;;;4.30;1.58;;;20.20;29.20;;;;;;4956124;29;20102;-71
2021/05/18 12:21:30;;;;;;;4.50;1.17;;;20.10;30.00;;;;;;4955891;29;20054;-72
2021/05/18 12:24:19;;;;;;;6.37;1.50;;;20.30;29.90;;;;;;4956029;29;20035;-72
2021/05/18 12:26:57;;;;;;;3.65;1.38;;;20.20;30.30;;;;;;4956812;29;20049;-72
2021/05/18 12:29:36;;;;;;;4.55;0.98;;;20.90;27.60;;;;;;4956116;29;20047;-72
2021/05/18 12:32:18;;;;;;;5.03;1.13;;;20.50;26.90;;;;;;4956192;29;20071;-72
2021/05/18 12:35:09;;;;;;;4.78;1.17;;;20.30;24.80;;;;;;4955884;29;20051;-72
2021/05/18 12:37:43;;;;;;;2.63;1.00;;;19.80;23.20;;;;;;4955162;29;20051;-72
2021/05/18 12:40:16;;;;;;;4.03;1.10;;;20.00;24.90;;;;;;4948143;29;20263;-72
2021/05/18 12:42:45;;;;;;;6.35;0.70;;;20.40;24.40;;;;;;4955906;29;20162;-73
2021/05/18 12:45:18;;;;;;;5.38;1.05;;;20.40;24.60;;;;;;4955575;29;20036;-73
2021/05/18 12:47:49;;;;;;;15.93;4.70;;;20.70;25.60;;;;;;4956528;29;20070;-72
2021/05/18 12:50:17;;;;;;;14.20;1.38;;;20.60;23.70;;;;;;4956221;29;20035;-72
2021/05/18 12:52:51;;;;;;;5.35;1.33;;;20.50;24.70;;;;;;4956547;29;20043;-73
2021/05/18 12:55:26;;;;;;;3.20;0.82;;;20.00;26.10;;;;;;4955546;29;20039;-72
2021/05/18 12:57:56;;;;;;;10.90;3.47;;;19.40;26.40;;;;;;4955289;29;20059;-72
2021/05/18 13:00:39;;;;;;;6.43;3.45;;;19.20;27.40;;;;;;4955597;29;20046;-72
2021/05/18 13:03:14;;;;;;;3.33;1.40;;;19.20;26.80;;;;;;4947168;29;20039;-72
2021/05/18 13:05:43;;;;;;;2.50;1.08;;;19.00;26.70;;;;;;4955510;29;20039;-72
2021/05/18 13:08:14;;;;;;;3.00;1.08;;;19.00;26.50;;;;;;4955285;29;20575;-73
2021/05/18 13:13:55;;;;;;;8.43;2.08;;;19.40;29.30;;;;;;4952262;29;20498;-74
2021/05/18 13:16:23;;;;;;;4.97;1.27;;;19.40;28.70;;;;;;4954343;29;20466;-75
2021/05/18 13:19:11;;;;;;;4.60;1.02;;;19.60;27.10;;;;;;4954065;29;20074;-74
2021/05/18 13:21:51;;;;;;;5.15;1.27;;;20.10;26.10;;;;;;4954918;29;20043;-74
2021/05/18 13:27:01;;;;;;;5.15;1.20;;;21.80;25.10;;;;;;4955423;29;20067;-73
2021/05/18 13:29:27;;;;;;;4.45;1.20;;;22.00;25.10;;;;;;4958329;28;20043;-73
2021/05/18 13:31:55;;;;;;;3.88;1.10;;;21.40;25.80;;;;;;4959732;29;20066;-73
2021/05/18 13:34:21;;;;;;;3.65;1.05;;;21.30;26.40;;;;;;4958141;29;20039;-73
2021/05/18 13:36:48;;;;;;;5.45;1.50;;;21.60;26.00;;;;;;4959174;29;20066;-74
2021/05/18 13:40:03;;;;;;;2.72;0.80;;;21.60;25.40;;;;;;4959067;29;20043;-75
2021/05/18 13:42:28;;;;;;;2.88;1.15;;;21.80;27.70;;;;;;4958054;29;20047;-73
2021/05/18 13:44:55;;;;;;;4.97;2.58;;;21.20;25.60;;;;;;4959033;29;20046;-74
2021/05/18 13:47:21;;;;;;;5.38;1.50;;;21.00;25.70;;;;;;4959730;29;20050;-73
2021/05/18 13:49:47;;;;;;;5.70;1.13;;;21.10;28.00;;;;;;4959415;29;20035;-73
2021/05/18 13:52:13;;;;;;;5.47;1.15;;;21.70;26.90;;;;;;4958726;29;20043;-73
2021/05/18 13:54:39;;;;;;;5.75;1.02;;;21.50;24.90;;;;;;4958351;29;20102;-73
2021/05/18 13:57:06;;;;;;;4.40;1.17;;;21.40;27.20;;;;;;4958521;29;20130;-73
2021/05/18 13:59:32;;;;;;;5.60;1.00;;;20.90;25.90;;;;;;4959055;29;20046;-73
2021/05/18 14:01:58;;;;;;;2.65;1.05;;;20.40;27.10;;;;;;4959346;28;20059;-73
2021/05/18 14:04:25;;;;;;;5.95;1.70;;;21.30;26.30;;;;;;4958248;29;20049;-72
2021/05/18 14:07:21;;;;;;;3.53;1.13;;;21.30;24.90;;;;;;4958320;29;20569;-73
2021/05/18 14:09:46;;;;;;;2.97;1.20;;;21.10;25.80;;;;;;4958939;29;20102;-73
2021/05/18 14:12:12;;;;;;;3.60;1.20;;;21.10;26.30;;;;;;4958963;29;20062;-73
2021/05/18 14:14:38;;;;;;;5.50;1.25;;;21.00;25.10;;;;;;4958519;29;20039;-73
2021/05/18 14:17:04;;;;;;;3.28;0.98;;;21.10;26.20;;;;;;4959156;29;20062;-75
2021/05/18 14:19:30;;;;;;;1.88;0.80;;;21.40;24.00;;;;;;4958384;29;20503;-74
2021/05/18 14:21:56;;;;;;;3.38;1.10;;;21.40;24.10;;;;;;4959165;29;20046;-73
2021/05/18 14:24:23;;;;;;;3.13;0.80;;;20.60;26.50;;;;;;4958262;29;20441;-73
2021/05/18 14:26:49;;;;;;;2.53;0.90;;;20.60;25.70;;;;;;4959243;29;20043;-72
2021/05/18 14:29:15;;;;;;;3.65;1.40;;;20.60;26.00;;;;;;4958509;29;20086;-73
2021/05/18 14:31:41;;;;;;;5.78;1.00;;;19.90;28.10;;;;;;4958680;29;20062;-73
2021/05/18 14:34:06;;;;;;;2.85;0.95;;;19.70;26.90;;;;;;4957746;29;20131;-74
2021/05/18 14:36:32;;;;;;;4.03;0.88;;;19.50;27.20;;;;;;4957990;29;20518;-73
2021/05/18 14:39:02;;;;;;;3.92;1.00;;;19.40;28.00;;;;;;4957921;28;20094;-73
2021/05/18 14:44:12;;;;;;;3.88;0.90;;;19.40;29.60;;;;;;4957932;29;20063;-73
2021/05/18 14:46:59;;;;;;;3.35;0.80;;;19.30;30.50;;;;;;4957512;29;20126;-73
2021/05/18 14:55:08;;;;;;;2.70;0.90;;;19.50;34.00;;;;;;4958263;29;20086;-72
2021/05/18 14:57:34;;;;;;;1.92;0.88;;;19.50;34.50;;;;;;4956650;29;20046;-72
2021/05/18 14:59:59;;;;;;;2.53;0.73;;;19.50;39.20;;;;;;4958347;29;20043;-72
2021/05/18 15:02:25;;;;;;;3.72;1.17;;;19.30;40.90;;;;;;4956099;28;20593;-74
2021/05/18 15:04:52;;;;;;;2.35;1.02;;;19.60;41.90;;;;;;4957794;29;20494;-72
2021/05/18 15:07:20;;;;;;;2.80;0.80;;;19.60;42.80;;;;;;4957479;29;20035;-72
2021/05/18 15:09:46;;;;;;;6.53;1.50;;;19.10;46.50;;;;;;4957950;29;20127;-72
2021/05/18 15:12:12;;;;;;;3.00;1.20;;;18.70;44.00;;;;;;4956716;29;20050;-72
2021/05/18 15:14:39;;;;;;;4.00;1.30;;;18.50;46.20;;;;;;4957045;29;20122;-72
2021/05/18 15:17:05;;;;;;;6.55;1.00;;;18.90;45.40;;;;;;4957249;29;20126;-72
2021/05/18 15:19:31;;;;;;;2.85;0.65;;;18.90;41.80;;;;;;4956830;29;20073;-72
2021/05/18 15:22:00;;;;;;;4.68;0.90;;;19.10;44.80;;;;;;4957249;29;20039;-72
2021/05/18 15:24:28;;;;;;;2.40;0.80;;;19.10;46.60;;;;;;4957079;29;20081;-74
2021/05/18 15:26:54;;;;;;;4.40;1.05;;;19.00;45.30;;;;;;4956433;29;20249;-74
2021/05/18 15:29:21;;;;;;;5.38;1.33;;;19.20;45.70;;;;;;4957318;29;20572;-74
2021/05/18 15:31:47;;;;;;;2.33;0.88;;;19.20;44.70;;;;;;4957299;29;20089;-74
2021/05/18 15:34:13;;;;;;;2.85;1.20;;;19.20;45.20;;;;;;4957407;29;20053;-74
2021/05/18 15:36:39;;;;;;;5.47;1.08;;;19.20;45.90;;;;;;4956782;29;20047;-74
2021/05/18 15:39:06;;;;;;;4.47;0.98;;;19.00;48.70;;;;;;4957248;29;20043;-74
2021/05/18 15:41:32;;;;;;;5.20;1.15;;;19.00;48.30;;;;;;4957099;29;20057;-74
2021/05/18 15:44:00;;;;;;;3.55;0.80;;;18.90;48.30;;;;;;4956813;29;20051;-74
2021/05/18 15:46:25;;;;;;;1.85;1.27;;;18.50;47.20;;;;;;4957018;29;20130;-74
2021/05/18 15:48:51;;;;;;;3.97;1.20;;;18.00;50.50;;;;;;4957024;29;20071;-74
2021/05/18 15:51:17;;;;;;;2.83;0.90;;;18.00;52.40;;;;;;4955740;28;20050;-75
2021/05/18 15:53:43;;;;;;;4.65;1.10;;;18.10;51.50;;;;;;4956717;29;20094;-75
2021/05/18 15:56:09;;;;;;;2.97;0.80;;;18.20;50.50;;;;;;4956793;29;20058;-75
2021/05/18 15:58:35;;;;;;;2.17;0.90;;;18.30;48.70;;;;;;4956867;29;20131;-75
2021/05/18 16:01:01;;;;;;;3.35;0.90;;;18.30;50.00;;;;;;4956450;29;20154;-75
2021/05/18 16:03:26;;;;;;;4.53;1.20;;;18.60;51.20;;;;;;4956490;29;20043;-75
2021/05/18 16:05:53;;;;;;;3.15;1.10;;;19.00;51.30;;;;;;4955240;29;20043;-75
2021/05/18 16:10:58;;;;;;;6.72;1.08;;;18.60;52.60;;;;;;4951906;29;20615;-72
2021/05/18 16:13:30;;;;;;;3.83;1.00;;;18.60;50.10;;;;;;4927644;29;20488;-71
2021/05/18 16:16:07;;;;;;;3.03;0.85;;;18.40;49.10;;;;;;4933263;29;20039;-73
2021/05/18 16:18:34;;;;;;;2.97;1.00;;;18.50;50.40;;;;;;4936556;29;20075;-74
2021/05/18 17:18:41;;;;;;;3.35;0.93;;;16.20;73.10;;;;;;4632552;31;20135;-73
2021/05/18 17:21:07;;;;;;;3.95;0.95;;;16.20;73.20;;;;;;4631731;31;20043;-73
2021/05/18 17:23:38;;;;;;;2.70;0.90;;;16.40;73.60;;;;;;4632702;31;20135;-74
2021/05/18 17:26:10;;;;;;;5.15;0.98;;;16.40;73.30;;;;;;4633260;31;20110;-73
2021/05/18 17:28:37;;;;;;;3.03;0.95;;;16.40;73.10;;;;;;4635818;31;20090;-75
2021/05/18 17:31:04;;;;;;;4.20;1.38;;;16.20;73.60;;;;;;4635439;30;20052;-74
2021/05/18 17:33:32;;;;;;;3.53;1.10;;;16.20;73.90;;;;;;4633205;31;20111;-75
2021/05/18 17:35:57;;;;;;;4.82;1.02;;;16.10;74.50;;;;;;4633075;30;20045;-75
2021/05/18 17:38:23;;;;;;;4.90;0.90;;;16.00;74.70;;;;;;4632539;30;20142;-75
2021/05/18 17:40:49;;;;;;;3.05;1.10;;;16.00;75.20;;;;;;4632975;31;20051;-75
2021/05/18 17:43:21;;;;;;;6.05;1.17;;;15.80;75.50;;;;;;4632086;31;20134;-75
2021/05/18 17:45:49;;;;;;;4.95;1.27;;;15.70;77.30;;;;;;4631908;31;20047;-75
2021/05/18 17:48:15;;;;;;;2.60;1.17;;;15.60;76.50;;;;;;4631359;30;20137;-74
2021/05/18 17:50:40;;;;;;;4.35;1.15;;;15.50;75.80;;;;;;4632029;31;20505;-73
2021/05/18 17:53:06;;;;;;;4.10;1.25;;;15.50;76.60;;;;;;4632529;31;20138;-72
2021/05/18 17:55:34;;;;;;;5.10;1.40;;;15.40;76.90;;;;;;4632921;31;20047;-73
2021/05/18 17:58:00;;;;;;;2.60;1.00;;;15.20;78.50;;;;;;4632691;31;20063;-73
2021/05/18 18:00:26;;;;;;;3.05;1.13;;;15.30;79.30;;;;;;4632200;31;20043;-73
2021/05/18 18:02:51;;;;;;;3.42;1.20;;;15.20;80.90;;;;;;4632976;31;20051;-73
2021/05/18 18:05:17;;;;;;;2.40;1.27;;;15.00;81.70;;;;;;4632671;31;20054;-73
2021/05/18 18:07:44;;;;;;;4.32;1.42;;;14.90;82.60;;;;;;4632466;31;20527;-73
2021/05/18 18:10:13;;;;;;;3.75;0.93;;;14.80;82.70;;;;;;4632686;31;20054;-73
2021/05/18 18:12:39;;;;;;;3.92;1.25;;;14.70;83.10;;;;;;4632766;31;20062;-73
2021/05/18 18:15:05;;;;;;;4.07;1.20;;;14.60;84.30;;;;;;4634312;31;20051;-73
2021/05/18 18:17:31;;;;;;;4.72;1.10;;;14.60;84.30;;;;;;4635378;31;20138;-73
2021/05/18 18:19:57;;;;;;;2.78;1.38;;;14.50;85.00;;;;;;4635370;31;20437;-73
2021/05/18 18:22:25;;;;;;;6.63;1.23;;;14.30;84.50;;;;;;4635632;31;20373;-73
2021/05/18 18:24:52;;;;;;;3.45;0.90;;;14.30;84.40;;;;;;4635434;31;20051;-73
2021/05/18 18:27:18;;;;;;;2.65;0.73;;;14.20;82.10;;;;;;4635721;30;20126;-74
2021/05/18 18:29:44;;;;;;;5.30;1.55;;;14.20;79.90;;;;;;4635354;31;20055;-74
2021/05/18 18:32:10;;;;;;;3.95;1.48;;;14.20;79.90;;;;;;4635293;31;20044;-73
2021/05/18 18:34:37;;;;;;;2.38;0.90;;;14.10;80.70;;;;;;4635354;31;20130;-73
2021/05/18 18:37:06;;;;;;;2.03;0.85;;;13.90;80.90;;;;;;4635450;31;20073;-73
2021/05/18 18:39:33;;;;;;;3.90;1.73;;;13.80;82.00;;;;;;4632664;31;20087;-72
2021/05/18 18:41:59;;;;;;;3.72;1.40;;;13.60;83.20;;;;;;4634641;31;20087;-72
2021/05/18 18:44:24;;;;;;;2.03;0.85;;;13.60;83.80;;;;;;4634151;31;20039;-73
2021/05/18 18:46:50;;;;;;;3.47;1.35;;;13.50;84.00;;;;;;4634902;30;20055;-73
2021/05/18 18:49:20;;;;;;;2.88;1.20;;;13.60;84.50;;;;;;4635150;31;20077;-73
2021/05/18 18:51:47;;;;;;;3.65;1.00;;;13.50;85.70;;;;;;4635195;31;20107;-73
2021/05/18 18:54:13;;;;;;;4.13;1.10;;;13.50;85.70;;;;;;4633376;31;20043;-72
2021/05/18 18:56:39;;;;;;;4.55;1.75;;;13.30;87.60;;;;;;4632371;30;20051;-73
2021/05/18 18:59:06;;;;;;;3.10;1.05;;;13.30;87.60;;;;;;4632670;30;20099;-73
2021/05/18 19:01:35;;;;;;;2.40;0.90;;;13.20;87.80;;;;;;4635119;31;20054;-73
2021/05/18 19:04:05;;;;;;;3.97;1.48;;;13.20;88.90;;;;;;4634083;31;20126;-73
2021/05/18 19:06:40;;;;;;;3.45;1.55;;;13.20;90.50;;;;;;4630411;31;20651;-73
2021/05/18 19:14:28;;;;;;;2.47;1.17;;;13.00;91.20;;;;;;4632386;31;20491;-73
2021/05/18 19:16:54;;;;;;;3.13;1.05;;;13.00;91.10;;;;;;4633830;31;20051;-73
2021/05/18 19:19:21;;;;;;;2.50;0.90;;;12.90;91.40;;;;;;4633726;31;20417;-73
2021/05/18 19:21:49;;;;;;;2.70;0.95;;;12.90;91.30;;;;;;4634329;31;20130;-73
2021/05/18 19:24:17;;;;;;;3.08;1.30;;;12.90;91.30;;;;;;4634294;31;20047;-73
2021/05/18 19:26:44;;;;;;;2.00;0.93;;;12.80;91.70;;;;;;4633685;31;20047;-73
2021/05/18 19:29:10;;;;;;;3.60;1.00;;;12.80;92.10;;;;;;4634515;30;20078;-73
2021/05/18 19:31:36;;;;;;;4.40;1.35;;;12.90;92.10;;;;;;4634371;31;20512;-73
2021/05/18 19:34:03;;;;;;;3.38;1.10;;;13.00;92.20;;;;;;4634071;31;20081;-73
2021/05/18 19:36:39;;;;;;;4.43;0.82;;;13.00;91.90;;;;;;4634010;31;20050;-73
2021/05/18 19:51:55;;;;;;;2.78;1.20;;;13.20;93.30;;;;;;4650096;30;20050;-72
2021/05/18 19:54:30;;;;;;;1.60;0.70;;;13.20;92.80;;;;;;4650682;30;20057;-72
2021/05/18 19:57:02;;;;;;;1.05;0.57;;;13.10;92.90;;;;;;4650316;30;20135;-72
2021/05/18 20:20:19;;;;;;;4.72;3.13;;;12.70;99.90;;;;;;4649743;30;20078;-72
2021/05/18 20:22:45;;;;;;;3.15;0.68;;;12.80;99.90;;;;;;4648724;30;20043;-72
2021/05/18 20:25:12;;;;;;;2.83;1.88;;;12.60;99.90;;;;;;4648724;30;20696;-72
2021/05/18 20:27:37;;;;;;;0.95;0.50;;;12.60;99.90;;;;;;4650181;30;20137;-72
2021/05/18 20:30:06;;;;;;;1.92;0.70;;;12.60;99.90;;;;;;4650045;30;20512;-72
2021/05/18 20:32:32;;;;;;;2.40;0.60;;;12.60;99.90;;;;;;4650264;30;20050;-72
2021/05/18 20:40:39;;;;;;;0.90;0.50;;;12.50;99.90;;;;;;4650003;30;20046;-72
2021/05/18 20:43:04;;;;;;;0.93;0.50;;;12.50;99.90;;;;;;4650369;30;20046;-72